sensor_id;sensor_type;location;lat;lon;timestamp;temperature;humidity
5492;DHT22;2768;53.540;10.224;2023-12-28T00:04:07;7.00;99.90
5492;DHT22;2768;53.540;10.224;2023-12-28T00:10:00;7.10;99.90
5492;DHT22;2768;53.540;10.224;2023-12-28T00:15:54;7.20;99.90
5492;DHT22;2768;53.540;10.224;2023-12-28T00:21:49;7.30;99.90
5492;DHT22;2768;53.540;10.224;2023-12-28T00:27:42;7.60;99.90
5492;DHT22;2768;53.540;10.224;2023-12-28T00:33:37;7.70;99.90
5492;DHT22;2768;53.540;10.224;2023-12-28T00:39:32;7.80;99.90
5492;DHT22;2768;53.540;10.224;2023-12-28T00:45:26;7.80;99.90
5492;DHT22;2768;53.540;10.224;2023-12-28T00:51:20;7.80;99.90
5492;DHT22;2768;53.540;10.224;2023-12-28T00:57:15;7.70;99.90
5492;DHT22;2768;53.540;10.224;2023-12-28T01:03:08;7.60;99.90
5492;DHT22;2768;53.540;10.224;2023-12-28T01:09:02;7.60;99.90
5492;DHT22;2768;53.540;10.224;2023-12-28T01:14:56;7.50;99.90
5492;DHT22;2768;53.540;10.224;2023-12-28T01:20:49;7.60;99.90
5492;DHT22;2768;53.540;10.224;2023-12-28T01:26:43;7.60;99.90
5492;DHT22;2768;53.540;10.224;2023-12-28T01:32:37;7.60;99.90
5492;DHT22;2768;53.540;10.224;2023-12-28T01:38:30;7.60;99.90
5492;DHT22;2768;53.540;10.224;2023-12-28T01:44:23;7.60;99.90
5492;DHT22;2768;53.540;10.224;2023-12-28T01:50:19;7.50;99.90
5492;DHT22;2768;53.540;10.224;2023-12-28T01:56:13;7.60;99.90
5492;DHT22;2768;53.540;10.224;2023-12-28T02:02:06;7.60;99.90
5492;DHT22;2768;53.540;10.224;2023-12-28T02:08:02;7.70;99.90
5492;DHT22;2768;53.540;10.224;2023-12-28T02:13:55;7.80;99.90
5492;DHT22;2768;53.540;10.224;2023-12-28T02:19:50;7.80;99.90
5492;DHT22;2768;53.540;10.224;2023-12-28T02:25:46;7.80;99.90
5492;DHT22;2768;53.540;10.224;2023-12-28T02:31:45;8.00;99.90
5492;DHT22;2768;53.540;10.224;2023-12-28T02:37:39;8.10;99.90
5492;DHT22;2768;53.540;10.224;2023-12-28T02:43:35;8.20;99.90
5492;DHT22;2768;53.540;10.224;2023-12-28T02:49:28;8.10;99.90
5492;DHT22;2768;53.540;10.224;2023-12-28T02:55:21;8.20;99.90
5492;DHT22;2768;53.540;10.224;2023-12-28T03:01:17;8.10;99.90
5492;DHT22;2768;53.540;10.224;2023-12-28T03:07:10;8.20;99.90
5492;DHT22;2768;53.540;10.224;2023-12-28T03:13:04;8.20;99.90
5492;DHT22;2768;53.540;10.224;2023-12-28T03:18:59;8.20;99.90
5492;DHT22;2768;53.540;10.224;2023-12-28T03:24:52;8.20;99.90
5492;DHT22;2768;53.540;10.224;2023-12-28T03:30:46;8.10;99.90
5492;DHT22;2768;53.540;10.224;2023-12-28T03:36:41;8.20;99.90
5492;DHT22;2768;53.540;10.224;2023-12-28T03:42:34;8.20;99.90
5492;DHT22;2768;53.540;10.224;2023-12-28T03:48:27;8.20;99.90
5492;DHT22;2768;53.540;10.224;2023-12-28T03:54:22;8.20;99.90
5492;DHT22;2768;53.540;10.224;2023-12-28T04:00:16;8.20;99.90
5492;DHT22;2768;53.540;10.224;2023-12-28T04:06:09;8.10;99.90
5492;DHT22;2768;53.540;10.224;2023-12-28T04:12:05;8.10;99.90
5492;DHT22;2768;53.540;10.224;2023-12-28T04:17:58;8.10;99.90
5492;DHT22;2768;53.540;10.224;2023-12-28T04:23:53;8.10;99.90
5492;DHT22;2768;53.540;10.224;2023-12-28T04:29:47;8.00;99.90
5492;DHT22;2768;53.540;10.224;2023-12-28T04:35:45;8.00;99.90
5492;DHT22;2768;53.540;10.224;2023-12-28T04:50:27;7.90;99.90
5492;DHT22;2768;53.540;10.224;2023-12-28T04:56:21;7.90;99.90
5492;DHT22;2768;53.540;10.224;2023-12-28T05:02:15;7.90;99.90
5492;DHT22;2768;53.540;10.224;2023-12-28T05:08:09;8.00;99.90
5492;DHT22;2768;53.540;10.224;2023-12-28T05:14:02;8.00;99.90
5492;DHT22;2768;53.540;10.224;2023-12-28T05:19:56;7.90;99.90
5492;DHT22;2768;53.540;10.224;2023-12-28T05:25:51;8.00;99.90
5492;DHT22;2768;53.540;10.224;2023-12-28T05:31:44;8.00;99.90
5492;DHT22;2768;53.540;10.224;2023-12-28T05:37:38;8.10;99.90
5492;DHT22;2768;53.540;10.224;2023-12-28T05:43:32;8.00;99.90
5492;DHT22;2768;53.540;10.224;2023-12-28T05:49:25;8.10;99.90
5492;DHT22;2768;53.540;10.224;2023-12-28T05:55:20;8.10;99.90
5492;DHT22;2768;53.540;10.224;2023-12-28T06:01:15;8.10;99.90
5492;DHT22;2768;53.540;10.224;2023-12-28T06:07:09;8.30;99.90
5492;DHT22;2768;53.540;10.224;2023-12-28T06:13:03;8.40;99.90
5492;DHT22;2768;53.540;10.224;2023-12-28T06:18:58;8.20;99.90
5492;DHT22;2768;53.540;10.224;2023-12-28T06:24:51;8.30;99.90
5492;DHT22;2768;53.540;10.224;2023-12-28T06:30:45;8.40;99.90
5492;DHT22;2768;53.540;10.224;2023-12-28T06:36:40;8.40;99.90
5492;DHT22;2768;53.540;10.224;2023-12-28T06:42:35;8.60;99.90
5492;DHT22;2768;53.540;10.224;2023-12-28T06:48:28;8.60;99.90
5492;DHT22;2768;53.540;10.224;2023-12-28T06:54:23;8.80;99.90
5492;DHT22;2768;53.540;10.224;2023-12-28T07:00:17;8.80;99.90
5492;DHT22;2768;53.540;10.224;2023-12-28T07:06:11;8.90;99.90
5492;DHT22;2768;53.540;10.224;2023-12-28T07:12:06;9.00;99.90
5492;DHT22;2768;53.540;10.224;2023-12-28T07:17:59;9.00;99.90
5492;DHT22;2768;53.540;10.224;2023-12-28T07:23:53;9.10;99.90
5492;DHT22;2768;53.540;10.224;2023-12-28T07:29:48;9.00;99.90
5492;DHT22;2768;53.540;10.224;2023-12-28T07:35:42;9.30;99.90
5492;DHT22;2768;53.540;10.224;2023-12-28T07:48:51;9.10;99.90
5492;DHT22;2768;53.540;10.224;2023-12-28T07:54:46;9.50;99.90
5492;DHT22;2768;53.540;10.224;2023-12-28T08:00:39;9.40;99.90
5492;DHT22;2768;53.540;10.224;2023-12-28T08:06:34;9.40;99.90
5492;DHT22;2768;53.540;10.224;2023-12-28T08:12:27;9.40;99.90
5492;DHT22;2768;53.540;10.224;2023-12-28T08:18:21;9.40;99.90
5492;DHT22;2768;53.540;10.224;2023-12-28T08:24:15;9.40;99.90
5492;DHT22;2768;53.540;10.224;2023-12-28T08:30:09;9.40;99.90
5492;DHT22;2768;53.540;10.224;2023-12-28T08:36:03;9.50;99.90
5492;DHT22;2768;53.540;10.224;2023-12-28T08:41:59;9.60;99.90
5492;DHT22;2768;53.540;10.224;2023-12-28T08:47:53;9.60;99.90
5492;DHT22;2768;53.540;10.224;2023-12-28T08:53:47;9.70;99.90
5492;DHT22;2768;53.540;10.224;2023-12-28T08:59:42;9.80;99.90
5492;DHT22;2768;53.540;10.224;2023-12-28T09:05:36;9.90;99.90
5492;DHT22;2768;53.540;10.224;2023-12-28T09:11:30;9.90;99.90
5492;DHT22;2768;53.540;10.224;2023-12-28T09:17:25;10.10;98.30
5492;DHT22;2768;53.540;10.224;2023-12-28T09:23:18;10.10;90.10
5492;DHT22;2768;53.540;10.224;2023-12-28T09:29:12;10.00;87.00
5492;DHT22;2768;53.540;10.224;2023-12-28T09:35:08;10.20;74.10
5492;DHT22;2768;53.540;10.224;2023-12-28T09:41:07;10.30;54.00
5492;DHT22;2768;53.540;10.224;2023-12-28T09:47:04;10.30;37.90
5492;DHT22;2768;53.540;10.224;2023-12-28T09:53:00;10.50;7.70
5492;DHT22;2768;53.540;10.224;2023-12-28T09:58:55;10.50;1.00
5492;DHT22;2768;53.540;10.224;2023-12-28T10:04:49;10.50;1.00
5492;DHT22;2768;53.540;10.224;2023-12-28T10:10:44;10.60;1.00
5492;DHT22;2768;53.540;10.224;2023-12-28T10:16:43;10.60;1.00
5492;DHT22;2768;53.540;10.224;2023-12-28T10:22:37;10.60;1.00
5492;DHT22;2768;53.540;10.224;2023-12-28T10:28:34;10.60;1.00
5492;DHT22;2768;53.540;10.224;2023-12-28T10:34:29;10.60;1.00
5492;DHT22;2768;53.540;10.224;2023-12-28T10:40:24;10.50;1.00
5492;DHT22;2768;53.540;10.224;2023-12-28T10:46:25;10.60;1.00
5492;DHT22;2768;53.540;10.224;2023-12-28T10:52:21;10.70;1.00
5492;DHT22;2768;53.540;10.224;2023-12-28T10:58:24;10.60;1.00
5492;DHT22;2768;53.540;10.224;2023-12-28T11:04:29;10.70;1.00
5492;DHT22;2768;53.540;10.224;2023-12-28T11:10:25;10.60;1.00
5492;DHT22;2768;53.540;10.224;2023-12-28T11:16:19;10.70;1.00
5492;DHT22;2768;53.540;10.224;2023-12-28T11:22:15;10.90;1.00
5492;DHT22;2768;53.540;10.224;2023-12-28T11:28:09;10.90;1.00
5492;DHT22;2768;53.540;10.224;2023-12-28T11:34:04;10.80;1.00
5492;DHT22;2768;53.540;10.224;2023-12-28T11:40:17;10.80;1.00
5492;DHT22;2768;53.540;10.224;2023-12-28T11:46:12;10.80;1.00
5492;DHT22;2768;53.540;10.224;2023-12-28T11:52:07;10.80;1.00
5492;DHT22;2768;53.540;10.224;2023-12-28T11:58:03;10.80;1.00
5492;DHT22;2768;53.540;10.224;2023-12-28T12:03:56;10.80;1.00
5492;DHT22;2768;53.540;10.224;2023-12-28T12:09:55;10.80;1.00
5492;DHT22;2768;53.540;10.224;2023-12-28T12:15:52;10.80;1.00
5492;DHT22;2768;53.540;10.224;2023-12-28T12:21:49;10.90;1.00
5492;DHT22;2768;53.540;10.224;2023-12-28T12:27:43;10.90;1.00
5492;DHT22;2768;53.540;10.224;2023-12-28T12:33:39;11.00;1.00
5492;DHT22;2768;53.540;10.224;2023-12-28T12:39:33;11.00;1.00
5492;DHT22;2768;53.540;10.224;2023-12-28T12:45:28;11.00;1.00
5492;DHT22;2768;53.540;10.224;2023-12-28T12:51:24;10.90;1.00
5492;DHT22;2768;53.540;10.224;2023-12-28T12:57:17;11.10;1.00
5492;DHT22;2768;53.540;10.224;2023-12-28T13:03:11;11.10;1.00
5492;DHT22;2768;53.540;10.224;2023-12-28T13:09:06;11.10;1.00
5492;DHT22;2768;53.540;10.224;2023-12-28T13:15:00;11.00;1.00
5492;DHT22;2768;53.540;10.224;2023-12-28T13:20:53;11.00;1.00
5492;DHT22;2768;53.540;10.224;2023-12-28T13:26:48;10.90;1.00
5492;DHT22;2768;53.540;10.224;2023-12-28T13:32:42;11.00;1.00
5492;DHT22;2768;53.540;10.224;2023-12-28T13:38:35;10.90;1.00
5492;DHT22;2768;53.540;10.224;2023-12-28T13:44:30;10.90;1.00
5492;DHT22;2768;53.540;10.224;2023-12-28T13:50:23;10.90;1.00
5492;DHT22;2768;53.540;10.224;2023-12-28T13:56:17;10.90;1.00
5492;DHT22;2768;53.540;10.224;2023-12-28T14:02:11;10.80;1.00
5492;DHT22;2768;53.540;10.224;2023-12-28T14:08:05;10.70;1.00
5492;DHT22;2768;53.540;10.224;2023-12-28T14:13:58;10.70;1.00
5492;DHT22;2768;53.540;10.224;2023-12-28T14:19:53;10.70;1.00
5492;DHT22;2768;53.540;10.224;2023-12-28T14:25:47;10.70;1.00
5492;DHT22;2768;53.540;10.224;2023-12-28T14:31:46;10.70;1.00
5492;DHT22;2768;53.540;10.224;2023-12-28T14:37:41;10.60;1.00
5492;DHT22;2768;53.540;10.224;2023-12-28T14:43:34;10.70;1.00
5492;DHT22;2768;53.540;10.224;2023-12-28T14:49:27;10.70;1.00
5492;DHT22;2768;53.540;10.224;2023-12-28T14:55:22;10.70;1.00
5492;DHT22;2768;53.540;10.224;2023-12-28T15:01:17;10.70;1.00
5492;DHT22;2768;53.540;10.224;2023-12-28T15:07:12;10.60;1.00
5492;DHT22;2768;53.540;10.224;2023-12-28T15:13:08;10.60;1.00
5492;DHT22;2768;53.540;10.224;2023-12-28T15:19:02;10.70;1.00
5492;DHT22;2768;53.540;10.224;2023-12-28T15:24:56;10.60;1.00
5492;DHT22;2768;53.540;10.224;2023-12-28T15:30:52;10.70;1.00
5492;DHT22;2768;53.540;10.224;2023-12-28T15:36:45;10.60;1.00
5492;DHT22;2768;53.540;10.224;2023-12-28T15:42:39;10.60;1.00
5492;DHT22;2768;53.540;10.224;2023-12-28T15:48:34;10.60;1.00
5492;DHT22;2768;53.540;10.224;2023-12-28T15:54:31;10.60;1.00
5492;DHT22;2768;53.540;10.224;2023-12-28T16:00:25;10.60;1.00
5492;DHT22;2768;53.540;10.224;2023-12-28T16:06:20;10.60;1.00
5492;DHT22;2768;53.540;10.224;2023-12-28T16:12:14;10.60;1.00
5492;DHT22;2768;53.540;10.224;2023-12-28T16:18:11;10.60;1.00
5492;DHT22;2768;53.540;10.224;2023-12-28T16:24:06;10.60;1.00
5492;DHT22;2768;53.540;10.224;2023-12-28T16:30:00;10.60;1.00
5492;DHT22;2768;53.540;10.224;2023-12-28T16:35:54;10.50;1.00
5492;DHT22;2768;53.540;10.224;2023-12-28T16:41:49;10.50;1.00
5492;DHT22;2768;53.540;10.224;2023-12-28T16:47:42;10.50;1.00
5492;DHT22;2768;53.540;10.224;2023-12-28T16:53:36;10.50;1.00
5492;DHT22;2768;53.540;10.224;2023-12-28T16:59:31;10.50;1.00
5492;DHT22;2768;53.540;10.224;2023-12-28T17:05:25;10.50;1.00
5492;DHT22;2768;53.540;10.224;2023-12-28T17:11:19;10.50;1.00
5492;DHT22;2768;53.540;10.224;2023-12-28T17:17:15;10.50;1.00
5492;DHT22;2768;53.540;10.224;2023-12-28T17:23:11;10.50;1.00
5492;DHT22;2768;53.540;10.224;2023-12-28T17:29:07;10.50;1.00
5492;DHT22;2768;53.540;10.224;2023-12-28T17:35:04;10.40;1.00
5492;DHT22;2768;53.540;10.224;2023-12-28T17:40:59;10.40;1.00
5492;DHT22;2768;53.540;10.224;2023-12-28T17:46:56;10.40;1.00
5492;DHT22;2768;53.540;10.224;2023-12-28T17:52:52;10.30;1.00
5492;DHT22;2768;53.540;10.224;2023-12-28T17:58:46;10.30;1.00
5492;DHT22;2768;53.540;10.224;2023-12-28T18:04:40;10.30;1.00
5492;DHT22;2768;53.540;10.224;2023-12-28T18:10:35;10.30;1.00
5492;DHT22;2768;53.540;10.224;2023-12-28T18:16:28;10.30;1.00
5492;DHT22;2768;53.540;10.224;2023-12-28T18:22:21;10.40;1.00
5492;DHT22;2768;53.540;10.224;2023-12-28T18:28:16;10.40;1.00
5492;DHT22;2768;53.540;10.224;2023-12-28T18:34:10;10.40;1.00
5492;DHT22;2768;53.540;10.224;2023-12-28T18:40:04;10.50;1.00
5492;DHT22;2768;53.540;10.224;2023-12-28T18:45:59;10.50;1.00
5492;DHT22;2768;53.540;10.224;2023-12-28T18:51:53;10.50;1.00
5492;DHT22;2768;53.540;10.224;2023-12-28T18:57:47;10.50;1.00
5492;DHT22;2768;53.540;10.224;2023-12-28T19:03:44;10.50;1.00
5492;DHT22;2768;53.540;10.224;2023-12-28T19:09:39;10.50;1.00
5492;DHT22;2768;53.540;10.224;2023-12-28T19:15:33;10.40;1.00
5492;DHT22;2768;53.540;10.224;2023-12-28T19:21:27;10.40;1.00
5492;DHT22;2768;53.540;10.224;2023-12-28T19:27:21;10.40;1.00
5492;DHT22;2768;53.540;10.224;2023-12-28T19:33:14;10.40;1.00
5492;DHT22;2768;53.540;10.224;2023-12-28T19:39:09;10.40;1.00
5492;DHT22;2768;53.540;10.224;2023-12-28T19:45:03;10.40;1.00
5492;DHT22;2768;53.540;10.224;2023-12-28T19:50:57;10.40;1.00
5492;DHT22;2768;53.540;10.224;2023-12-28T19:56:51;10.40;1.00
5492;DHT22;2768;53.540;10.224;2023-12-28T20:02:45;10.40;1.00
5492;DHT22;2768;53.540;10.224;2023-12-28T20:08:39;10.40;1.00
5492;DHT22;2768;53.540;10.224;2023-12-28T20:14:34;10.40;1.00
5492;DHT22;2768;53.540;10.224;2023-12-28T20:20:27;10.40;1.00
5492;DHT22;2768;53.540;10.224;2023-12-28T20:26:21;10.40;1.00
5492;DHT22;2768;53.540;10.224;2023-12-28T20:32:16;10.50;1.00
5492;DHT22;2768;53.540;10.224;2023-12-28T20:38:10;10.50;1.00
5492;DHT22;2768;53.540;10.224;2023-12-28T20:44:03;10.50;1.00
5492;DHT22;2768;53.540;10.224;2023-12-28T20:49:58;10.50;1.00
5492;DHT22;2768;53.540;10.224;2023-12-28T20:55:52;10.50;1.00
5492;DHT22;2768;53.540;10.224;2023-12-28T21:07:32;10.50;1.00
5492;DHT22;2768;53.540;10.224;2023-12-28T21:13:26;10.50;1.00
5492;DHT22;2768;53.540;10.224;2023-12-28T21:19:24;10.60;1.00
5492;DHT22;2768;53.540;10.224;2023-12-28T21:25:20;10.50;1.00
5492;DHT22;2768;53.540;10.224;2023-12-28T21:31:14;10.60;1.00
5492;DHT22;2768;53.540;10.224;2023-12-28T21:37:07;10.50;1.00
5492;DHT22;2768;53.540;10.224;2023-12-28T21:43:02;10.50;1.00
5492;DHT22;2768;53.540;10.224;2023-12-28T21:48:56;10.60;1.00
5492;DHT22;2768;53.540;10.224;2023-12-28T21:54:50;10.50;1.00
5492;DHT22;2768;53.540;10.224;2023-12-28T22:00:45;10.60;1.00
5492;DHT22;2768;53.540;10.224;2023-12-28T22:06:39;10.50;1.00
5492;DHT22;2768;53.540;10.224;2023-12-28T22:12:34;10.60;1.00
5492;DHT22;2768;53.540;10.224;2023-12-28T22:18:29;10.60;1.00
5492;DHT22;2768;53.540;10.224;2023-12-28T22:24:23;10.50;1.00
5492;DHT22;2768;53.540;10.224;2023-12-28T22:30:16;10.50;1.00
5492;DHT22;2768;53.540;10.224;2023-12-28T22:36:11;10.50;1.00
5492;DHT22;2768;53.540;10.224;2023-12-28T22:42:05;10.60;1.00
5492;DHT22;2768;53.540;10.224;2023-12-28T22:47:58;10.60;1.00
5492;DHT22;2768;53.540;10.224;2023-12-28T22:53:53;10.60;1.00
5492;DHT22;2768;53.540;10.224;2023-12-28T22:59:47;10.60;1.00
5492;DHT22;2768;53.540;10.224;2023-12-28T23:05:40;10.60;1.00
5492;DHT22;2768;53.540;10.224;2023-12-28T23:11:35;10.60;1.00
5492;DHT22;2768;53.540;10.224;2023-12-28T23:17:30;10.60;1.00
5492;DHT22;2768;53.540;10.224;2023-12-28T23:23:24;10.50;1.00
5492;DHT22;2768;53.540;10.224;2023-12-28T23:29:19;10.60;1.00
5492;DHT22;2768;53.540;10.224;2023-12-28T23:35:12;10.50;1.00
5492;DHT22;2768;53.540;10.224;2023-12-28T23:41:05;10.60;1.00
5492;DHT22;2768;53.540;10.224;2023-12-28T23:47:00;10.50;1.00
5492;DHT22;2768;53.540;10.224;2023-12-28T23:52:53;10.50;1.00
5492;DHT22;2768;53.540;10.224;2023-12-28T23:58:47;10.50;1.00
